createdAt,value
2019-03-08T00:00:27.388Z,21.00
2019-03-08T00:02:01.067Z,22.00
2019-03-08T00:03:34.818Z,17.17
2019-03-08T00:05:09.069Z,22.23
2019-03-08T00:06:42.821Z,17.60
2019-03-08T00:08:16.463Z,19.30
2019-03-08T00:09:50.312Z,20.00
2019-03-08T00:11:24.296Z,17.13
2019-03-08T00:12:58.115Z,20.50
2019-03-08T00:14:31.784Z,18.40
2019-03-08T00:16:05.502Z,26.67
2019-03-08T00:17:39.474Z,24.10
2019-03-08T00:19:13.575Z,20.37
2019-03-08T00:20:47.200Z,22.60
2019-03-08T00:22:20.836Z,20.70
2019-03-08T00:23:54.729Z,22.63
2019-03-08T00:25:28.897Z,23.13
2019-03-08T00:27:02.708Z,26.83
2019-03-08T00:28:36.375Z,34.53
2019-03-08T00:30:15.442Z,32.63
2019-03-08T00:31:49.435Z,35.27
2019-03-08T00:33:23.659Z,45.17
2019-03-08T00:34:57.378Z,50.23
2019-03-08T00:36:31.414Z,42.03
2019-03-08T00:38:05.126Z,49.07
2019-03-08T00:39:38.757Z,38.93
2019-03-08T00:41:12.495Z,57.87
2019-03-08T00:42:46.372Z,45.57
2019-03-08T00:44:20.059Z,55.13
2019-03-08T00:45:53.825Z,46.43
2019-03-08T00:47:27.573Z,46.43
2019-03-08T00:49:01.891Z,36.00
2019-03-08T00:50:35.587Z,36.53
2019-03-08T00:52:09.211Z,51.57
2019-03-08T00:53:42.914Z,45.17
2019-03-08T00:55:17.098Z,41.80
2019-03-08T00:56:51.094Z,38.53
2019-03-08T00:58:24.802Z,30.63
2019-03-08T00:59:58.438Z,31.40
2019-03-08T01:01:33.194Z,25.10
2019-03-08T01:03:06.952Z,32.80
2019-03-08T01:04:40.680Z,32.13
2019-03-08T01:06:14.363Z,38.70
2019-03-08T01:07:48.291Z,40.50
2019-03-08T01:09:22.089Z,39.03
2019-03-08T01:10:55.708Z,35.57
2019-03-08T01:12:30.133Z,31.40
2019-03-08T01:14:04.495Z,27.50
2019-03-08T01:15:38.207Z,23.10
2019-03-08T01:17:12.002Z,19.47
2019-03-08T01:18:45.666Z,21.10
2019-03-08T01:20:20.731Z,24.17
2019-03-08T01:21:54.420Z,22.00
2019-03-08T01:23:28.177Z,23.03
2019-03-08T01:25:01.872Z,21.93
2019-03-08T01:26:35.928Z,19.33
2019-03-08T01:28:11.317Z,19.33
2019-03-08T01:29:45.125Z,19.13
2019-03-08T01:31:18.821Z,18.97
2019-03-08T01:32:53.151Z,16.50
2019-03-08T01:34:26.894Z,20.10
2019-03-08T01:36:00.684Z,17.97
2019-03-08T01:37:34.426Z,21.80
2019-03-08T01:39:09.075Z,18.57
2019-03-08T01:40:42.790Z,20.63
2019-03-08T01:42:16.458Z,24.77
2019-03-08T01:43:50.299Z,18.90
2019-03-08T01:45:24.491Z,23.07
2019-03-08T01:46:58.193Z,24.83
2019-03-08T01:48:31.925Z,24.93
2019-03-08T01:50:07.210Z,22.13
2019-03-08T01:51:41.102Z,21.90
2019-03-08T01:53:14.807Z,20.07
2019-03-08T01:54:48.576Z,19.90
2019-03-08T01:56:22.377Z,16.43
2019-03-08T01:57:56.551Z,19.20
2019-03-08T01:59:30.334Z,17.23
2019-03-08T02:01:04.001Z,16.97
2019-03-08T02:02:39.483Z,23.23
2019-03-08T02:04:13.546Z,17.50
2019-03-08T02:05:47.208Z,20.83
2019-03-08T02:07:20.961Z,23.73
2019-03-08T02:08:55.077Z,28.97
2019-03-08T02:10:28.895Z,28.07
2019-03-08T02:12:02.633Z,24.30
2019-03-08T02:13:36.357Z,27.13
2019-03-08T02:15:12.942Z,30.80
2019-03-08T02:16:48.486Z,30.33
2019-03-08T02:18:22.221Z,29.60
2019-03-08T02:19:55.850Z,36.20
2019-03-08T02:21:29.855Z,30.30
2019-03-08T02:23:03.969Z,36.43
2019-03-08T02:24:37.613Z,27.63
2019-03-08T02:26:12.292Z,32.13
2019-03-08T02:27:46.009Z,32.80
2019-03-08T02:29:19.937Z,33.67
2019-03-08T02:30:54.867Z,23.97
2019-03-08T02:32:28.509Z,24.53
2019-03-08T02:34:02.230Z,28.33
2019-03-08T02:35:36.297Z,36.20
2019-03-08T02:37:09.990Z,28.53
2019-03-08T02:38:43.650Z,26.30
2019-03-08T02:40:34.822Z,30.53
2019-03-08T02:42:08.986Z,22.97
2019-03-08T02:43:42.631Z,37.00
2019-03-08T02:45:17.916Z,25.93
2019-03-08T02:46:52.416Z,22.13
2019-03-08T02:48:26.333Z,23.30
2019-03-08T02:50:00.017Z,23.93
2019-03-08T02:51:33.776Z,20.60
2019-03-08T02:53:07.497Z,18.27
2019-03-08T02:54:41.721Z,25.37
2019-03-08T02:56:15.372Z,24.23
2019-03-08T02:57:49.084Z,23.03
2019-03-08T02:59:22.806Z,24.67
2019-03-08T03:00:56.789Z,25.93
2019-03-08T03:02:31.130Z,30.20
2019-03-08T03:04:04.955Z,32.90
2019-03-08T03:05:39.267Z,32.88
2019-03-08T03:07:13.568Z,23.17
2019-03-08T03:08:47.237Z,30.40
2019-03-08T03:10:20.975Z,22.67
2019-03-08T03:11:54.660Z,23.60
2019-03-08T03:13:28.846Z,23.80
2019-03-08T03:15:02.583Z,30.30
2019-03-08T03:16:36.367Z,23.03
2019-03-08T03:18:10.118Z,27.37
2019-03-08T03:19:45.066Z,25.37
2019-03-08T03:21:19.407Z,22.47
2019-03-08T03:22:53.153Z,21.23
2019-03-08T03:24:26.819Z,19.70
2019-03-08T03:26:02.442Z,22.67
2019-03-08T03:27:37.779Z,20.70
2019-03-08T03:29:11.405Z,22.47
2019-03-08T03:30:45.037Z,20.70
2019-03-08T03:32:19.320Z,21.40
2019-03-08T03:33:53.336Z,24.33
2019-03-08T03:35:27.070Z,25.13
2019-03-08T03:37:04.493Z,21.60
2019-03-08T03:38:39.191Z,25.00
2019-03-08T03:40:15.356Z,24.37
2019-03-08T03:41:49.097Z,20.67
2019-03-08T03:43:22.712Z,25.60
2019-03-08T03:44:56.502Z,37.03
2019-03-08T03:46:30.149Z,26.97
2019-03-08T03:48:03.993Z,34.17
2019-03-08T03:49:37.703Z,41.70
2019-03-08T03:51:11.727Z,42.10
2019-03-08T03:52:45.494Z,37.43
2019-03-08T03:54:20.848Z,40.73
2019-03-08T03:55:54.622Z,32.17
2019-03-08T03:57:29.087Z,34.97
2019-03-08T03:59:02.875Z,29.87
2019-03-08T04:00:38.907Z,27.57
2019-03-08T04:02:13.713Z,30.20
2019-03-08T04:03:47.728Z,38.23
2019-03-08T04:05:21.462Z,28.50
2019-03-08T04:06:55.099Z,27.03
2019-03-08T04:08:28.866Z,28.27
2019-03-08T04:10:04.918Z,30.12
2019-03-08T04:11:39.113Z,31.57
2019-03-08T04:13:12.772Z,43.90
2019-03-08T04:14:46.479Z,84.13
2019-03-08T04:16:20.505Z,64.23
2019-03-08T04:17:54.138Z,30.57
2019-03-08T04:19:28.202Z,39.17
2019-03-08T04:21:01.903Z,38.07
2019-03-08T04:22:36.080Z,30.83
2019-03-08T04:24:09.782Z,29.93
2019-03-08T04:25:43.496Z,26.37
2019-03-08T04:27:17.141Z,29.27
2019-03-08T04:28:51.059Z,23.43
2019-03-08T04:30:24.737Z,40.27
2019-03-08T04:31:58.443Z,37.97
2019-03-08T04:33:32.052Z,36.63
2019-03-08T04:35:06.369Z,27.40
2019-03-08T04:36:41.695Z,23.83
2019-03-08T04:38:15.521Z,28.87
2019-03-08T04:39:49.234Z,29.53
2019-03-08T04:41:23.201Z,26.67
2019-03-08T04:42:56.953Z,23.10
2019-03-08T04:44:30.791Z,24.20
2019-03-08T04:46:04.433Z,23.33
2019-03-08T04:47:38.387Z,23.10
2019-03-08T04:49:12.042Z,23.53
2019-03-08T04:50:45.776Z,26.27
2019-03-08T04:52:19.638Z,26.33
2019-03-08T04:53:53.569Z,25.83
2019-03-08T04:55:27.283Z,32.57
2019-03-08T04:57:01.011Z,21.17
2019-03-08T04:58:34.725Z,27.20
2019-03-08T05:00:14.004Z,23.83
2019-03-08T05:01:47.700Z,29.23
2019-03-08T05:03:21.354Z,24.27
2019-03-08T05:04:55.407Z,23.07
2019-03-08T05:06:29.530Z,23.97
2019-03-08T05:08:03.195Z,24.90
2019-03-08T05:09:36.939Z,24.87
2019-03-08T05:11:10.627Z,23.10
2019-03-08T05:12:44.614Z,37.17
2019-03-08T05:14:18.249Z,42.23
2019-03-08T05:15:51.969Z,34.17
2019-03-08T05:17:25.696Z,36.80
2019-03-08T05:18:59.802Z,41.07
2019-03-08T05:20:33.555Z,35.00
2019-03-08T05:22:07.190Z,32.17
2019-03-08T05:23:40.892Z,33.50
2019-03-08T05:25:15.414Z,47.98
2019-03-08T05:26:49.092Z,57.67
2019-03-08T05:28:24.078Z,49.18
2019-03-08T05:29:58.299Z,38.15
2019-03-08T05:31:32.614Z,42.40
2019-03-08T05:33:06.873Z,25.17
2019-03-08T05:34:41.677Z,35.13
2019-03-08T05:36:16.378Z,32.55
2019-03-08T05:37:50.867Z,33.18
2019-03-08T05:39:24.627Z,28.90
2019-03-08T05:40:58.904Z,32.17
2019-03-08T05:42:33.191Z,24.10
2019-03-08T05:44:07.738Z,28.67
2019-03-08T05:45:41.995Z,30.00
2019-03-08T05:47:16.294Z,32.63
2019-03-08T05:48:50.590Z,43.98
2019-03-08T05:50:25.095Z,61.65
2019-03-08T05:51:59.327Z,48.30
2019-03-08T05:53:33.610Z,48.75
2019-03-08T05:55:10.652Z,46.20
2019-03-08T05:56:52.165Z,37.13
2019-03-08T05:58:22.281Z,45.78
2019-03-08T05:59:56.524Z,41.42
2019-03-08T06:01:30.820Z,42.80
2019-03-08T06:03:05.614Z,39.45
2019-03-08T06:04:39.930Z,44.05
2019-03-08T06:06:14.248Z,40.70
2019-03-08T06:07:48.684Z,41.08
2019-03-08T06:09:23.494Z,40.85
2019-03-08T06:10:57.794Z,41.40
2019-03-08T06:12:32.146Z,38.30
2019-03-08T06:14:06.472Z,35.45
2019-03-08T06:15:41.154Z,53.58
2019-03-08T06:17:15.428Z,52.05
2019-03-08T06:18:49.666Z,57.10
2019-03-08T06:20:23.923Z,57.73
2019-03-08T06:21:58.500Z,70.90
2019-03-08T06:23:33.368Z,71.25
2019-03-08T06:25:07.734Z,53.55
2019-03-08T06:26:41.989Z,54.63
2019-03-08T06:28:16.458Z,62.58
2019-03-08T06:29:50.689Z,64.97
2019-03-08T06:31:24.993Z,55.48
2019-03-08T06:33:00.009Z,50.98
2019-03-08T06:34:34.440Z,50.48
2019-03-08T06:36:09.908Z,51.33
2019-03-08T06:37:44.240Z,51.28
2019-03-08T06:39:18.918Z,46.25
2019-03-08T06:40:53.253Z,43.95
2019-03-08T06:42:27.482Z,49.65
2019-03-08T06:44:01.793Z,43.28
2019-03-08T06:45:36.078Z,45.08
2019-03-08T06:47:12.117Z,41.50
2019-03-08T06:48:46.339Z,38.38
2019-03-08T06:50:20.665Z,41.42
2019-03-08T06:51:54.988Z,35.33
2019-03-08T06:53:29.638Z,33.15
2019-03-08T06:55:05.268Z,34.13
2019-03-08T06:56:39.536Z,29.00
2019-03-08T06:58:15.417Z,32.33
2019-03-08T06:59:51.583Z,29.05
2019-03-08T07:01:25.993Z,32.55
2019-03-08T07:03:00.334Z,35.63
2019-03-08T07:04:34.574Z,49.30
2019-03-08T07:06:09.016Z,47.05
2019-03-08T07:07:43.362Z,57.95
2019-03-08T07:09:17.607Z,55.20
2019-03-08T07:10:52.247Z,46.40
2019-03-08T07:12:26.780Z,48.00
2019-03-08T07:14:01.062Z,48.10
2019-03-08T07:15:35.296Z,43.73
2019-03-08T07:17:09.525Z,40.92
2019-03-08T07:18:44.151Z,42.45
2019-03-08T07:20:23.225Z,40.28
2019-03-08T07:22:05.098Z,44.48
2019-03-08T07:23:40.980Z,46.05
2019-03-08T07:25:26.372Z,42.10
2019-03-08T07:27:08.688Z,35.80
2019-03-08T07:28:57.442Z,41.33
2019-03-08T07:30:36.362Z,32.35
2019-03-08T07:32:14.929Z,32.88
2019-03-08T07:33:54.354Z,36.85
2019-03-08T07:35:32.982Z,33.83
2019-03-08T07:37:11.991Z,34.88
2019-03-08T07:39:04.433Z,38.58
2019-03-08T07:40:49.373Z,34.50
2019-03-08T07:42:28.528Z,40.52
2019-03-08T07:44:10.120Z,36.45
2019-03-08T07:45:49.028Z,37.78
2019-03-08T07:47:37.060Z,34.23
2019-03-08T07:49:12.938Z,31.93
2019-03-08T07:50:57.654Z,29.50
2019-03-08T07:52:49.799Z,29.82
2019-03-08T07:54:25.978Z,26.85
2019-03-08T07:56:17.847Z,29.45
2019-03-08T07:58:03.016Z,44.03
2019-03-08T07:59:41.818Z,37.93
2019-03-08T08:01:29.866Z,35.90
2019-03-08T08:03:11.880Z,30.05
2019-03-08T08:04:59.893Z,28.23
2019-03-08T08:06:35.775Z,29.65
2019-03-08T08:08:28.194Z,27.00
2019-03-08T08:10:10.007Z,26.60
2019-03-08T08:11:54.941Z,26.57
2019-03-08T08:13:40.619Z,28.42
2019-03-08T08:15:34.638Z,24.35
2019-03-08T08:17:16.191Z,28.70
2019-03-08T08:19:01.555Z,33.08
2019-03-08T08:20:46.913Z,25.32
2019-03-08T08:22:37.721Z,27.50
2019-03-08T08:24:30.258Z,26.95
2019-03-08T08:26:11.826Z,27.30
2019-03-08T08:27:50.305Z,43.80
2019-03-08T08:29:34.675Z,33.73
2019-03-08T08:31:07.643Z,33.13
2019-03-08T08:33:00.103Z,32.90
2019-03-08T08:34:52.250Z,37.28
2019-03-08T08:36:28.477Z,37.13
2019-03-08T08:38:04.389Z,30.25
2019-03-08T08:39:46.051Z,33.92
2019-03-08T08:41:21.926Z,25.32
2019-03-08T08:43:00.873Z,30.27
2019-03-08T08:44:37.467Z,29.65
2019-03-08T08:46:18.990Z,29.87
2019-03-08T08:48:04.227Z,23.62
2019-03-08T08:49:55.118Z,26.62
2019-03-08T08:51:29.845Z,22.95
2019-03-08T08:53:08.703Z,21.48
2019-03-08T08:54:53.509Z,25.85
2019-03-08T08:56:35.358Z,20.40
2019-03-08T08:58:11.525Z,21.02
2019-03-08T08:59:47.702Z,23.47
2019-03-08T09:01:23.612Z,22.98
2019-03-08T09:03:05.477Z,24.18
2019-03-08T09:04:44.329Z,22.15
2019-03-08T09:06:20.563Z,23.35
2019-03-08T09:07:59.488Z,21.05
2019-03-08T09:09:35.386Z,24.00
2019-03-08T09:11:11.410Z,22.40
2019-03-08T09:12:50.284Z,13.05
2019-03-08T09:14:26.142Z,17.67
2019-03-08T09:16:05.179Z,19.65
2019-03-08T09:17:56.603Z,29.27
2019-03-08T09:19:35.174Z,19.30
2019-03-08T09:21:26.370Z,27.42
2019-03-08T09:23:02.362Z,15.25
2019-03-08T09:24:44.034Z,18.40
2019-03-08T09:26:25.853Z,9.93
2019-03-08T09:28:01.702Z,14.53
2019-03-08T09:29:41.228Z,14.73
2019-03-08T09:31:16.059Z,13.85
2019-03-08T09:32:58.908Z,20.35
2019-03-08T09:34:32.451Z,18.87
2019-03-08T09:36:11.784Z,12.82
2019-03-08T09:37:53.719Z,16.02
2019-03-08T09:39:35.874Z,17.17
2019-03-08T09:41:18.269Z,13.53
2019-03-08T09:43:00.066Z,10.08
2019-03-08T09:44:44.619Z,14.38
2019-03-08T09:46:21.368Z,10.82
2019-03-08T09:47:57.303Z,11.30
2019-03-08T09:49:35.873Z,11.35
2019-03-08T09:51:12.032Z,9.75
2019-03-08T09:52:53.808Z,13.03
2019-03-08T09:54:32.769Z,9.48
2019-03-08T09:56:14.133Z,8.70
2019-03-08T09:57:56.237Z,10.85
2019-03-08T09:59:47.437Z,12.47
2019-03-08T10:01:39.879Z,9.20
2019-03-08T10:03:32.365Z,9.93
2019-03-08T10:05:08.208Z,11.40
2019-03-08T10:06:59.140Z,10.63
2019-03-08T10:08:53.476Z,11.63
2019-03-08T10:10:29.349Z,9.98
2019-03-08T10:12:12.075Z,8.45
2019-03-08T10:14:03.770Z,9.10
2019-03-08T10:15:42.378Z,8.35
2019-03-08T10:17:30.358Z,13.98
2019-03-08T10:19:12.490Z,8.48
2019-03-08T10:21:04.660Z,8.53
2019-03-08T10:22:58.545Z,9.28
2019-03-08T10:24:52.653Z,11.95
2019-03-08T10:26:37.180Z,10.23
2019-03-08T10:28:29.552Z,12.35
2019-03-08T10:30:09.480Z,9.73
2019-03-08T10:31:45.324Z,12.23
2019-03-08T10:33:46.051Z,9.43
2019-03-08T10:35:23.573Z,9.60
2019-03-08T10:36:52.588Z,7.83
2019-03-08T10:38:28.448Z,9.25
2019-03-08T10:40:13.564Z,6.37
2019-03-08T10:42:04.712Z,6.37
2019-03-08T10:43:52.531Z,6.67
2019-03-08T10:45:38.397Z,9.40
2019-03-08T10:47:31.095Z,7.10
2019-03-08T10:49:07.704Z,6.92
2019-03-08T10:50:55.737Z,7.65
2019-03-08T10:52:38.431Z,10.85
2019-03-08T10:54:16.958Z,9.50
2019-03-08T10:56:05.115Z,8.73
2019-03-08T10:57:46.938Z,6.53
2019-03-08T10:59:35.948Z,5.05
2019-03-08T11:01:11.854Z,5.70
2019-03-08T11:02:56.998Z,5.95
2019-03-08T11:04:45.308Z,7.83
2019-03-08T11:06:21.466Z,5.80
2019-03-08T11:08:00.525Z,6.83
2019-03-08T11:09:48.370Z,5.97
2019-03-08T11:11:33.271Z,6.25
2019-03-08T11:13:24.718Z,7.42
2019-03-08T11:15:12.644Z,7.35
2019-03-08T11:16:48.511Z,5.45
2019-03-08T11:18:27.714Z,6.62
2019-03-08T11:20:20.085Z,7.60
2019-03-08T11:22:12.017Z,6.47
2019-03-08T11:23:48.235Z,4.33
2019-03-08T11:25:40.620Z,7.75
2019-03-08T11:27:19.182Z,7.72
2019-03-08T11:29:04.554Z,6.97
2019-03-08T11:30:43.398Z,5.50
2019-03-08T11:32:22.983Z,5.25
2019-03-08T11:34:06.222Z,6.90
2019-03-08T11:35:51.382Z,6.53
2019-03-08T11:37:27.911Z,6.05
2019-03-08T11:39:07.371Z,8.63
2019-03-08T11:40:43.229Z,7.53
2019-03-08T11:42:19.098Z,10.48
2019-03-08T11:44:06.753Z,5.92
2019-03-08T11:45:42.958Z,10.68
2019-03-08T11:47:18.861Z,5.37
2019-03-08T11:48:57.662Z,5.67
2019-03-08T11:50:36.480Z,7.00
2019-03-08T11:52:15.871Z,6.60
2019-03-08T11:53:56.396Z,4.60
2019-03-08T11:55:31.950Z,5.20
2019-03-08T11:57:24.720Z,5.15
2019-03-08T11:59:16.733Z,7.97
2019-03-08T12:00:58.328Z,6.05
2019-03-08T12:02:37.868Z,5.78
2019-03-08T12:04:28.432Z,5.95
2019-03-08T12:06:20.735Z,6.72
2019-03-08T12:07:56.815Z,6.87
2019-03-08T12:09:32.658Z,6.30
2019-03-08T12:11:26.854Z,5.53
2019-03-08T12:13:18.352Z,6.20
2019-03-08T12:14:54.215Z,5.33
2019-03-08T12:16:32.902Z,5.05
2019-03-08T12:18:21.382Z,6.47
2019-03-08T12:19:57.247Z,7.10
2019-03-08T12:21:35.857Z,5.55
2019-03-08T12:23:11.701Z,10.80
2019-03-08T12:24:47.828Z,5.97
2019-03-08T12:26:48.893Z,10.30
2019-03-08T12:28:39.610Z,12.28
2019-03-08T12:30:31.594Z,7.00
2019-03-08T12:32:16.525Z,8.60
2019-03-08T12:34:01.051Z,7.97
2019-03-08T12:35:55.191Z,6.80
2019-03-08T12:37:43.555Z,12.60
2019-03-08T12:39:22.818Z,8.95
2019-03-08T12:41:05.049Z,8.28
2019-03-08T12:42:43.731Z,9.38
2019-03-08T12:44:28.689Z,7.62
2019-03-08T12:46:04.723Z,7.85
2019-03-08T12:47:40.816Z,6.60
2019-03-08T12:49:16.664Z,6.58
2019-03-08T12:50:58.306Z,6.62
2019-03-08T12:52:34.552Z,8.63
2019-03-08T12:54:25.753Z,5.83
2019-03-08T12:56:10.743Z,14.43
2019-03-08T12:58:02.803Z,15.95
2019-03-08T12:59:44.896Z,8.85
2019-03-08T13:01:23.727Z,5.47
2019-03-08T13:03:15.874Z,7.97
2019-03-08T13:04:57.938Z,9.50
2019-03-08T13:06:45.779Z,8.95
2019-03-08T13:08:34.553Z,5.70
2019-03-08T13:10:16.814Z,10.65
2019-03-08T13:11:51.199Z,8.63
2019-03-08T13:13:25.409Z,7.92
2019-03-08T13:14:59.655Z,6.53
2019-03-08T13:16:34.020Z,4.80
2019-03-08T13:18:08.235Z,6.37
2019-03-08T13:19:42.508Z,8.30
2019-03-08T13:21:16.745Z,6.37
2019-03-08T13:22:51.162Z,7.20
2019-03-08T13:24:25.661Z,4.95
2019-03-08T13:26:01.278Z,8.68
2019-03-08T13:27:35.471Z,12.78
2019-03-08T13:29:10.161Z,8.88
2019-03-08T13:30:44.385Z,5.65
2019-03-08T13:32:18.661Z,11.18
2019-03-08T13:33:52.956Z,12.43
2019-03-08T13:35:27.353Z,11.45
2019-03-08T13:37:02.017Z,9.15
2019-03-08T13:38:36.661Z,13.32
2019-03-08T13:40:13.406Z,9.38
2019-03-08T13:41:47.924Z,8.50
2019-03-08T13:43:22.122Z,6.47
2019-03-08T13:44:56.386Z,6.08
2019-03-08T13:46:30.751Z,14.13
2019-03-08T13:48:05.407Z,8.40
2019-03-08T13:49:39.759Z,7.75
2019-03-08T13:51:14.033Z,19.85
2019-03-08T13:52:48.376Z,15.72
2019-03-08T13:54:22.827Z,11.73
2019-03-08T13:55:57.099Z,9.68
2019-03-08T13:57:31.406Z,20.12
2019-03-08T13:59:05.642Z,19.37
2019-03-08T14:00:40.272Z,8.65
2019-03-08T14:02:14.499Z,10.70
2019-03-08T14:03:48.817Z,7.92
2019-03-08T14:05:23.163Z,9.18
2019-03-08T14:06:57.753Z,11.28
2019-03-08T14:08:32.658Z,10.38
2019-03-08T14:10:18.275Z,14.53
2019-03-08T14:11:52.615Z,14.63
2019-03-08T14:13:27.160Z,13.50
2019-03-08T14:15:01.437Z,16.85
2019-03-08T14:16:35.692Z,10.05
2019-03-08T14:18:10.308Z,11.65
2019-03-08T14:19:44.918Z,8.58
2019-03-08T14:21:19.237Z,11.65
2019-03-08T14:22:53.460Z,23.35
2019-03-08T14:24:27.750Z,25.15
2019-03-08T14:26:02.685Z,17.55
2019-03-08T14:27:36.933Z,16.32
2019-03-08T14:29:11.263Z,17.70
2019-03-08T14:30:57.898Z,13.50
2019-03-08T14:32:29.426Z,12.25
2019-03-08T14:34:03.707Z,13.30
2019-03-08T14:35:37.993Z,13.58
2019-03-08T14:37:12.268Z,12.05
2019-03-08T14:38:46.998Z,18.37
2019-03-08T14:40:39.284Z,12.82
2019-03-08T14:42:21.296Z,12.95
2019-03-08T14:43:57.487Z,14.38
2019-03-08T14:45:44.563Z,15.03
2019-03-08T14:47:20.393Z,13.83
2019-03-08T14:48:55.234Z,15.55
2019-03-08T14:50:31.885Z,16.32
2019-03-08T14:52:05.633Z,15.83
2019-03-08T14:53:39.948Z,14.58
2019-03-08T14:55:14.947Z,17.92
2019-03-08T14:56:49.562Z,25.43
2019-03-08T14:58:23.813Z,24.05
2019-03-08T14:59:58.091Z,26.50
2019-03-08T15:01:32.368Z,22.52
2019-03-08T15:03:06.922Z,17.23
2019-03-08T15:04:41.183Z,23.52
2019-03-08T15:06:15.446Z,14.58
2019-03-08T15:07:49.738Z,18.85
2019-03-08T15:09:28.938Z,18.40
2019-03-08T15:11:00.561Z,20.15
2019-03-08T15:12:37.612Z,24.00
2019-03-08T15:14:10.772Z,20.62
2019-03-08T15:15:45.407Z,18.85
2019-03-08T15:17:20.117Z,20.32
2019-03-08T15:18:54.430Z,20.70
2019-03-08T15:20:28.677Z,21.87
2019-03-08T15:22:03.018Z,13.80
2019-03-08T15:23:37.299Z,14.83
2019-03-08T15:25:14.064Z,22.15
2019-03-08T15:26:48.438Z,14.53
2019-03-08T15:28:23.277Z,16.45
2019-03-08T15:29:57.553Z,15.10
2019-03-08T15:31:31.908Z,17.90
2019-03-08T15:33:06.077Z,14.65
2019-03-08T15:34:40.618Z,12.68
2019-03-08T15:36:14.875Z,11.20
2019-03-08T15:37:49.567Z,13.32
2019-03-08T15:39:23.771Z,17.05
2019-03-08T15:40:58.115Z,14.33
2019-03-08T15:42:36.293Z,12.15
2019-03-08T15:44:08.440Z,19.55
2019-03-08T15:45:44.519Z,19.15
2019-03-08T15:47:23.601Z,41.55
2019-03-08T15:48:55.321Z,28.07
2019-03-08T15:50:29.545Z,18.87
2019-03-08T15:52:04.759Z,21.33
2019-03-08T15:53:39.514Z,20.97
2019-03-08T15:55:14.186Z,23.15
2019-03-08T15:56:48.468Z,17.37
2019-03-08T15:58:22.767Z,15.63
2019-03-08T15:59:57.100Z,20.37
2019-03-08T16:01:31.404Z,20.82
2019-03-08T16:03:05.652Z,17.95
2019-03-08T16:04:39.951Z,23.70
2019-03-08T16:06:14.729Z,21.77
2019-03-08T16:07:49.010Z,19.00
2019-03-08T16:09:23.290Z,19.77
2019-03-08T16:10:57.543Z,19.80
2019-03-08T16:12:32.066Z,26.90
2019-03-08T16:14:09.000Z,39.78
2019-03-08T16:15:44.219Z,26.65
2019-03-08T16:17:18.508Z,23.65
2019-03-08T16:18:53.005Z,40.50
2019-03-08T16:20:27.225Z,29.65
2019-03-08T16:22:01.886Z,30.72
2019-03-08T16:23:36.113Z,31.70
2019-03-08T16:25:12.708Z,109.03
2019-03-08T16:26:46.928Z,79.07
2019-03-08T16:28:21.202Z,35.65
2019-03-08T16:29:55.949Z,54.93
2019-03-08T16:31:31.983Z,54.45
2019-03-08T16:33:10.825Z,45.73
2019-03-08T16:34:44.884Z,48.65
2019-03-08T16:36:25.978Z,57.30
2019-03-08T16:38:10.652Z,42.90
2019-03-08T16:39:46.142Z,44.03
2019-03-08T16:41:30.122Z,140.55
2019-03-08T16:43:22.442Z,218.90
2019-03-08T16:45:04.135Z,171.02
2019-03-08T16:46:45.640Z,186.57
2019-03-08T16:48:26.949Z,157.10
2019-03-08T16:50:02.640Z,141.50
2019-03-08T16:51:54.797Z,114.17
2019-03-08T16:53:30.999Z,111.60
2019-03-08T16:55:14.202Z,163.25
2019-03-08T16:56:50.066Z,161.18
2019-03-08T16:58:29.090Z,170.38
2019-03-08T17:00:08.237Z,172.60
2019-03-08T17:01:54.322Z,170.38
2019-03-08T17:03:30.219Z,217.05
2019-03-08T17:05:08.075Z,287.60
2019-03-08T17:06:50.014Z,279.98
2019-03-08T17:08:38.185Z,226.73
2019-03-08T17:10:14.038Z,177.00
2019-03-08T17:11:50.230Z,138.15
2019-03-08T17:13:26.558Z,158.37
2019-03-08T17:15:18.820Z,183.37
2019-03-08T17:16:54.702Z,174.77
2019-03-08T17:18:36.579Z,115.37
2019-03-08T17:20:17.949Z,114.20
2019-03-08T17:21:59.857Z,109.30
2019-03-08T17:23:41.299Z,132.20
2019-03-08T17:25:29.193Z,119.70
2019-03-08T17:27:13.813Z,126.60
2019-03-08T17:28:56.318Z,134.72
2019-03-08T17:30:32.175Z,146.90
2019-03-08T17:32:08.191Z,138.15
2019-03-08T17:33:51.551Z,137.72
2019-03-08T17:35:30.263Z,162.47
2019-03-08T17:37:15.125Z,199.80
2019-03-08T17:38:59.778Z,263.02
2019-03-08T17:40:52.406Z,204.20
2019-03-08T17:42:34.136Z,200.32
2019-03-08T17:44:22.092Z,157.93
2019-03-08T17:46:01.198Z,146.07
2019-03-08T17:47:46.350Z,147.70
2019-03-08T17:49:37.480Z,132.07
2019-03-08T17:51:16.341Z,156.82
2019-03-08T17:52:55.032Z,162.45
2019-03-08T17:54:33.836Z,131.22
2019-03-08T17:56:15.488Z,198.55
2019-03-08T17:58:07.914Z,147.98
2019-03-08T17:59:46.786Z,139.68
2019-03-08T18:01:39.051Z,133.05
2019-03-08T18:03:24.527Z,135.60
2019-03-08T18:05:00.494Z,148.00
2019-03-08T18:06:42.158Z,140.28
2019-03-08T18:08:36.473Z,137.05
2019-03-08T18:10:12.379Z,199.25
2019-03-08T18:11:48.287Z,202.03
2019-03-08T18:13:24.229Z,162.57
2019-03-08T18:15:16.595Z,163.82
2019-03-08T18:17:08.887Z,94.58
2019-03-08T18:18:44.805Z,129.95
2019-03-08T18:20:23.774Z,81.72
2019-03-08T18:21:59.640Z,44.67
2019-03-08T18:23:38.675Z,44.45
2019-03-08T18:25:14.574Z,39.55
2019-03-08T18:26:50.670Z,43.35
2019-03-08T18:28:41.765Z,39.78
2019-03-08T18:30:37.151Z,37.65
2019-03-08T18:32:19.509Z,38.58
2019-03-08T18:34:01.224Z,38.78
2019-03-08T18:35:40.213Z,35.30
2019-03-08T18:37:18.853Z,40.95
2019-03-08T18:39:07.030Z,37.63
2019-03-08T18:40:42.916Z,37.45
2019-03-08T18:42:34.983Z,46.68
2019-03-08T18:44:16.694Z,35.50
2019-03-08T18:46:01.784Z,40.25
2019-03-08T18:47:52.627Z,39.03
2019-03-08T18:49:28.665Z,38.88
2019-03-08T18:51:22.618Z,43.15
2019-03-08T18:53:14.585Z,39.38
2019-03-08T18:55:00.407Z,40.35
2019-03-08T18:56:51.035Z,45.63
2019-03-08T18:58:43.545Z,42.90
2019-03-08T19:00:32.476Z,53.95
2019-03-08T19:02:11.348Z,42.13
2019-03-08T19:04:03.772Z,44.93
2019-03-08T19:05:43.928Z,55.20
2019-03-08T19:07:29.057Z,33.75
2019-03-08T19:09:21.319Z,30.60
2019-03-08T19:11:16.622Z,29.67
2019-03-08T19:12:52.540Z,47.08
2019-03-08T19:14:28.386Z,32.50
2019-03-08T19:16:04.254Z,28.95
2019-03-08T19:17:40.396Z,44.60
2019-03-08T19:19:29.441Z,36.58
2019-03-08T19:21:21.732Z,37.35
2019-03-08T19:22:57.813Z,32.03
2019-03-08T19:24:39.915Z,32.15
2019-03-08T19:26:18.493Z,33.63
2019-03-08T19:28:06.528Z,40.63
2019-03-08T19:29:42.397Z,47.35
2019-03-08T19:31:20.941Z,47.83
2019-03-08T19:32:57.608Z,35.00
2019-03-08T19:34:56.026Z,27.40
2019-03-08T19:36:31.936Z,42.67
2019-03-08T19:38:07.795Z,66.57
2019-03-08T19:40:00.505Z,55.55
2019-03-08T19:41:52.756Z,57.48
2019-03-08T19:43:36.668Z,53.40
2019-03-08T19:45:13.337Z,85.75
2019-03-08T19:46:49.191Z,84.32
2019-03-08T19:48:27.767Z,228.80
2019-03-08T19:50:06.582Z,186.65
2019-03-08T19:51:58.014Z,192.28
2019-03-08T19:53:49.151Z,92.65
2019-03-08T19:55:25.015Z,114.77
2019-03-08T19:57:07.060Z,69.60
2019-03-08T19:58:42.983Z,66.28
2019-03-08T20:00:35.162Z,61.28
2019-03-08T20:02:14.623Z,143.75
2019-03-08T20:03:59.474Z,142.98
2019-03-08T20:05:44.497Z,68.62
2019-03-08T20:07:26.976Z,55.55
2019-03-08T20:09:08.861Z,32.95
2019-03-08T20:11:00.982Z,27.82
2019-03-08T20:12:53.542Z,24.32
2019-03-08T20:14:38.743Z,25.35
2019-03-08T20:16:20.596Z,33.45
2019-03-08T20:17:59.723Z,40.40
2019-03-08T20:19:44.468Z,46.28
2019-03-08T20:23:36.206Z,31.50
2019-03-08T20:25:20.986Z,22.02
2019-03-08T20:27:09.408Z,38.63
2019-03-08T20:28:45.894Z,49.63
2019-03-08T20:30:27.688Z,203.35
2019-03-08T20:32:12.652Z,242.95
2019-03-08T20:33:51.423Z,205.90
2019-03-08T20:35:33.334Z,169.65
2019-03-08T20:37:09.225Z,334.50
2019-03-08T20:39:00.324Z,255.00
2019-03-08T20:40:52.406Z,68.33
2019-03-08T20:42:40.294Z,62.95
2019-03-08T20:44:19.047Z,46.10
2019-03-08T20:45:54.895Z,72.42
2019-03-08T20:47:32.261Z,158.82
2019-03-08T20:49:07.039Z,151.82
2019-03-08T20:50:41.642Z,232.10
2019-03-08T20:52:17.390Z,143.52
2019-03-08T20:53:51.759Z,155.37
2019-03-08T20:55:25.981Z,120.28
2019-03-08T20:57:00.486Z,99.97
2019-03-08T20:58:34.710Z,154.35
2019-03-08T21:00:18.410Z,134.85
2019-03-08T21:01:52.694Z,98.37
2019-03-08T21:03:27.135Z,45.17
2019-03-08T21:05:01.809Z,31.62
2019-03-08T21:06:36.138Z,27.65
2019-03-08T21:08:10.374Z,31.07
2019-03-08T21:09:44.921Z,43.15
2019-03-08T21:11:19.257Z,62.85